createdAt,value
2018-08-19T00:00:31.925Z,19.68
2018-08-19T00:01:31.899Z,19.68
2018-08-19T00:02:31.926Z,19.68
2018-08-19T00:03:31.954Z,19.61
2018-08-19T00:04:31.995Z,19.82
2018-08-19T00:05:31.926Z,19.70
2018-08-19T00:06:31.936Z,19.67
2018-08-19T00:07:31.933Z,19.76
2018-08-19T00:08:31.897Z,19.61
2018-08-19T00:09:31.903Z,19.58
2018-08-19T00:10:31.974Z,19.25
2018-08-19T00:11:31.892Z,19.34
2018-08-19T00:12:31.954Z,19.34
2018-08-19T00:13:31.904Z,19.46
2018-08-19T00:14:31.943Z,19.60
2018-08-19T00:15:31.876Z,19.58
2018-08-19T00:16:31.914Z,19.55
2018-08-19T00:17:31.875Z,19.50
2018-08-19T00:18:31.805Z,19.50
2018-08-19T00:19:31.907Z,19.52
2018-08-19T00:20:31.889Z,19.60
2018-08-19T00:21:31.922Z,19.38
2018-08-19T00:22:31.457Z,19.38
2018-08-19T00:23:31.889Z,19.34
2018-08-19T00:24:31.879Z,19.31
2018-08-19T00:25:31.868Z,19.32
2018-08-19T00:26:31.912Z,19.45
2018-08-19T00:27:31.862Z,19.27
2018-08-19T00:28:31.921Z,19.31
2018-08-19T00:29:31.848Z,19.27
2018-08-19T00:30:31.918Z,19.39
2018-08-19T00:31:31.868Z,19.21
2018-08-19T00:32:31.930Z,19.27
2018-08-19T00:33:31.939Z,19.32
2018-08-19T00:34:31.947Z,19.27
2018-08-19T00:35:31.934Z,19.32
2018-08-19T00:36:31.926Z,19.28
2018-08-19T00:37:31.931Z,19.25
2018-08-19T00:38:31.887Z,19.35
2018-08-19T00:39:31.959Z,19.35
2018-08-19T00:40:31.911Z,19.28
2018-08-19T00:41:31.949Z,19.16
2018-08-19T00:42:31.445Z,19.16
2018-08-19T00:43:31.950Z,19.20
2018-08-19T00:44:31.892Z,19.10
2018-08-19T00:45:31.940Z,19.07
2018-08-19T00:46:31.884Z,19.07
2018-08-19T00:47:31.895Z,18.97
2018-08-19T00:48:31.950Z,19.09
2018-08-19T00:49:31.917Z,19.17
2018-08-19T00:50:31.871Z,19.13
2018-08-19T00:51:31.424Z,19.09
2018-08-19T00:52:31.923Z,19.23
2018-08-19T00:53:31.930Z,19.02
2018-08-19T00:54:31.911Z,18.93
2018-08-19T00:55:31.928Z,19.06
2018-08-19T00:57:31.921Z,18.99
2018-08-19T00:58:31.857Z,19.02
2018-08-19T00:59:31.932Z,19.07
2018-08-19T01:00:31.915Z,19.06
2018-08-19T01:01:31.873Z,19.10
2018-08-19T01:02:31.915Z,18.94
2018-08-19T01:03:31.894Z,18.94
2018-08-19T01:04:31.921Z,18.96
2018-08-19T01:05:31.939Z,18.97
2018-08-19T01:06:31.917Z,19.05
2018-08-19T01:07:31.916Z,18.93
2018-08-19T01:08:31.940Z,18.90
2018-08-19T01:09:31.936Z,19.02
2018-08-19T01:10:31.898Z,18.99
2018-08-19T01:11:31.853Z,18.94
2018-08-19T01:12:33.789Z,18.79
2018-08-19T01:13:31.933Z,18.94
2018-08-19T01:14:31.944Z,18.93
2018-08-19T01:15:31.948Z,18.89
2018-08-19T01:16:31.926Z,18.93
2018-08-19T01:17:31.873Z,18.90
2018-08-19T01:18:31.964Z,18.87
2018-08-19T01:19:31.971Z,18.93
2018-08-19T01:20:31.958Z,18.87
2018-08-19T01:21:33.761Z,18.79
2018-08-19T01:22:31.990Z,18.75
2018-08-19T01:23:31.971Z,18.79
2018-08-19T01:24:31.990Z,18.84
2018-08-19T01:25:31.975Z,18.71
2018-08-19T01:26:31.996Z,18.74
2018-08-19T01:27:31.964Z,18.64
2018-08-19T01:28:32.004Z,18.76
2018-08-19T01:29:32.103Z,18.84
2018-08-19T01:30:31.887Z,18.97
2018-08-19T01:31:31.985Z,18.94
2018-08-19T01:32:34.109Z,18.93
2018-08-19T01:33:31.845Z,18.75
2018-08-19T01:34:31.913Z,18.75
2018-08-19T01:35:31.894Z,18.83
2018-08-19T01:36:31.960Z,18.84
2018-08-19T01:37:31.891Z,18.82
2018-08-19T01:38:31.921Z,18.75
2018-08-19T01:39:31.885Z,18.79
2018-08-19T01:40:31.923Z,18.60
2018-08-19T01:41:31.902Z,18.53
2018-08-19T01:42:31.953Z,18.60
2018-08-19T01:43:31.950Z,18.66
2018-08-19T01:44:32.005Z,18.76
2018-08-19T01:45:33.755Z,18.69
2018-08-19T01:46:31.933Z,18.65
2018-08-19T01:47:31.934Z,18.64
2018-08-19T01:48:32.005Z,18.69
2018-08-19T01:49:31.960Z,18.75
2018-08-19T01:50:33.725Z,18.72
2018-08-19T01:51:31.997Z,18.68
2018-08-19T01:52:31.922Z,18.74
2018-08-19T01:53:31.954Z,18.76
2018-08-19T01:54:31.921Z,18.76
2018-08-19T01:55:31.992Z,18.86
2018-08-19T01:56:33.752Z,18.79
2018-08-19T01:57:31.946Z,18.66
2018-08-19T01:58:31.953Z,18.71
2018-08-19T01:59:34.139Z,18.75
2018-08-19T02:00:31.935Z,18.71
2018-08-19T02:01:31.962Z,18.66
2018-08-19T02:02:31.883Z,18.62
2018-08-19T02:03:33.765Z,18.62
2018-08-19T02:04:31.969Z,18.62
2018-08-19T02:05:31.896Z,18.76
2018-08-19T02:06:31.974Z,18.62
2018-08-19T02:07:31.937Z,18.64
2018-08-19T02:08:31.963Z,18.64
2018-08-19T02:09:31.894Z,18.62
2018-08-19T02:10:31.960Z,18.62
2018-08-19T02:11:31.892Z,18.50
2018-08-19T02:12:31.905Z,18.38
2018-08-19T02:13:31.959Z,18.41
2018-08-19T02:14:31.930Z,18.36
2018-08-19T02:15:31.292Z,18.50
2018-08-19T02:16:31.904Z,18.50
2018-08-19T02:17:31.946Z,18.53
2018-08-19T02:18:31.912Z,18.54
2018-08-19T02:19:31.906Z,18.60
2018-08-19T02:20:31.956Z,18.59
2018-08-19T02:22:31.981Z,18.54
2018-08-19T02:23:31.966Z,18.54
2018-08-19T02:24:31.956Z,18.36
2018-08-19T02:25:31.925Z,18.41
2018-08-19T02:26:31.957Z,18.47
2018-08-19T02:27:31.934Z,18.42
2018-08-19T02:28:31.955Z,18.32
2018-08-19T02:29:31.972Z,18.46
2018-08-19T02:30:32.013Z,18.28
2018-08-19T02:31:32.015Z,18.28
2018-08-19T02:32:31.999Z,18.16
2018-08-19T02:33:34.141Z,18.28
2018-08-19T02:34:31.970Z,18.29
2018-08-19T02:35:31.950Z,18.31
2018-08-19T02:36:31.974Z,18.36
2018-08-19T02:37:32.007Z,18.38
2018-08-19T02:38:31.931Z,18.44
2018-08-19T02:39:31.984Z,18.39
2018-08-19T02:40:31.900Z,18.39
2018-08-19T02:41:31.979Z,18.41
2018-08-19T02:42:32.010Z,18.29
2018-08-19T02:43:32.124Z,18.34
2018-08-19T02:44:31.963Z,18.29
2018-08-19T02:46:32.010Z,18.34
2018-08-19T02:47:31.871Z,18.46
2018-08-19T02:48:31.675Z,18.32
2018-08-19T02:49:31.676Z,18.44
2018-08-19T02:50:31.644Z,18.29
2018-08-19T02:51:31.666Z,18.31
2018-08-19T02:52:32.144Z,18.25
2018-08-19T02:53:31.653Z,18.29
2018-08-19T02:54:31.610Z,18.36
2018-08-19T02:55:31.575Z,18.41
2018-08-19T02:56:31.688Z,18.39
2018-08-19T02:57:31.625Z,18.38
2018-08-19T02:58:31.619Z,18.31
2018-08-19T02:59:31.636Z,18.36
2018-08-19T03:00:31.315Z,18.29
2018-08-19T03:01:31.596Z,18.28
2018-08-19T03:02:31.740Z,18.25
2018-08-19T03:03:31.673Z,18.31
2018-08-19T03:04:31.675Z,18.35
2018-08-19T03:05:31.645Z,18.28
2018-08-19T03:06:32.148Z,18.29
2018-08-19T03:07:32.013Z,18.31
2018-08-19T03:08:31.728Z,18.26
2018-08-19T03:09:31.708Z,18.35
2018-08-19T03:10:31.668Z,18.36
2018-08-19T03:11:31.667Z,18.26
2018-08-19T03:12:31.672Z,18.36
2018-08-19T03:13:31.630Z,18.31
2018-08-19T03:14:31.742Z,18.21
2018-08-19T03:16:31.648Z,18.14
2018-08-19T03:17:31.772Z,18.20
2018-08-19T03:18:31.769Z,18.19
2018-08-19T03:19:31.790Z,18.17
2018-08-19T03:20:33.432Z,18.25
2018-08-19T03:21:31.721Z,18.31
2018-08-19T03:22:31.771Z,18.28
2018-08-19T03:23:31.779Z,18.21
2018-08-19T03:24:31.708Z,18.19
2018-08-19T03:25:31.834Z,18.19
2018-08-19T03:26:31.691Z,18.25
2018-08-19T03:27:31.518Z,18.38
2018-08-19T03:28:31.581Z,18.34
2018-08-19T03:29:31.676Z,18.25
2018-08-19T03:30:31.546Z,18.20
2018-08-19T03:31:31.673Z,18.14
2018-08-19T03:32:31.590Z,18.14
2018-08-19T03:33:31.764Z,18.23
2018-08-19T03:34:31.522Z,18.32
2018-08-19T03:35:31.612Z,18.16
2018-08-19T03:36:31.670Z,18.20
2018-08-19T03:37:31.465Z,18.14
2018-08-19T03:38:31.556Z,18.21
2018-08-19T03:39:31.505Z,18.14
2018-08-19T03:40:31.486Z,17.98
2018-08-19T03:41:31.517Z,17.98
2018-08-19T03:42:31.610Z,18.04
2018-08-19T03:43:31.608Z,18.01
2018-08-19T03:44:31.555Z,18.10
2018-08-19T03:45:31.539Z,18.13
2018-08-19T03:46:31.590Z,18.09
2018-08-19T03:47:32.158Z,18.16
2018-08-19T03:48:31.536Z,18.28
2018-08-19T03:49:31.580Z,18.14
2018-08-19T03:50:31.613Z,18.04
2018-08-19T03:51:31.673Z,17.96
2018-08-19T03:52:31.596Z,18.07
2018-08-19T03:53:31.543Z,18.10
2018-08-19T03:54:31.612Z,17.99
2018-08-19T03:55:31.577Z,17.96
2018-08-19T03:56:31.565Z,18.01
2018-08-19T03:57:33.405Z,18.07
2018-08-19T03:58:31.603Z,18.20
2018-08-19T03:59:31.593Z,18.16
2018-08-19T04:00:31.651Z,18.20
2018-08-19T04:01:33.670Z,18.14
2018-08-19T04:02:31.681Z,18.01
2018-08-19T04:03:31.621Z,18.11
2018-08-19T04:04:31.534Z,18.04
2018-08-19T04:05:31.523Z,17.92
2018-08-19T04:06:31.648Z,17.91
2018-08-19T04:07:31.490Z,17.96
2018-08-19T04:08:31.166Z,17.99
2018-08-19T04:09:31.515Z,18.01
2018-08-19T04:10:31.522Z,17.99
2018-08-19T04:11:31.465Z,17.98
2018-08-19T04:12:31.619Z,18.04
2018-08-19T04:13:31.553Z,17.98
2018-08-19T04:14:31.479Z,17.95
2018-08-19T04:15:31.542Z,17.80
2018-08-19T04:16:31.580Z,17.89
2018-08-19T04:17:31.449Z,17.86
2018-08-19T04:18:31.457Z,17.89
2018-08-19T04:19:31.553Z,17.83
2018-08-19T04:20:31.585Z,17.79
2018-08-19T04:21:31.539Z,17.76
2018-08-19T04:22:31.548Z,17.81
2018-08-19T04:23:31.631Z,17.81
2018-08-19T04:24:31.526Z,17.84
2018-08-19T04:25:31.512Z,17.84
2018-08-19T04:26:31.612Z,17.79
2018-08-19T04:27:31.553Z,17.83
2018-08-19T04:28:31.463Z,17.63
2018-08-19T04:29:31.550Z,17.63
2018-08-19T04:30:31.596Z,17.79
2018-08-19T04:31:31.514Z,17.76
2018-08-19T04:32:31.514Z,17.60
2018-08-19T04:33:31.523Z,17.73
2018-08-19T04:34:31.467Z,17.83
2018-08-19T04:35:31.532Z,17.86
2018-08-19T04:36:31.536Z,17.83
2018-08-19T04:37:31.508Z,17.86
2018-08-19T04:38:31.687Z,17.89
2018-08-19T04:39:33.312Z,17.84
2018-08-19T04:40:31.549Z,17.84
2018-08-19T04:41:31.577Z,17.81
2018-08-19T04:42:31.540Z,17.83
2018-08-19T04:43:31.432Z,17.79
2018-08-19T04:44:31.497Z,17.77
2018-08-19T04:45:31.515Z,17.80
2018-08-19T04:46:31.078Z,17.63
2018-08-19T04:47:31.469Z,17.73
2018-08-19T04:48:31.485Z,17.80
2018-08-19T04:49:31.444Z,17.66
2018-08-19T04:50:31.515Z,17.55
2018-08-19T04:51:31.440Z,17.58
2018-08-19T04:52:31.488Z,17.62
2018-08-19T04:53:31.457Z,17.38
2018-08-19T04:54:31.537Z,17.45
2018-08-19T04:55:31.505Z,17.54
2018-08-19T04:56:31.532Z,17.66
2018-08-19T04:57:31.527Z,17.71
2018-08-19T04:58:31.429Z,17.68
2018-08-19T04:59:31.483Z,17.66
2018-08-19T05:00:31.206Z,17.76
2018-08-19T05:02:31.558Z,17.65
2018-08-19T05:03:31.529Z,17.58
2018-08-19T05:04:33.709Z,17.45
2018-08-19T05:05:31.497Z,17.39
2018-08-19T05:06:31.469Z,17.39
2018-08-19T05:07:31.504Z,17.45
2018-08-19T05:08:31.480Z,17.28
2018-08-19T05:09:31.532Z,17.38
2018-08-19T05:10:31.517Z,17.53
2018-08-19T05:11:31.537Z,17.49
2018-08-19T05:12:31.538Z,17.40
2018-08-19T05:13:33.351Z,17.49
2018-08-19T05:14:31.525Z,17.49
2018-08-19T05:15:31.563Z,17.24
2018-08-19T05:16:31.469Z,17.25
2018-08-19T05:17:31.533Z,17.45
2018-08-19T05:18:31.523Z,17.36
2018-08-19T05:19:31.536Z,17.42
2018-08-19T05:20:31.501Z,17.32
2018-08-19T05:21:31.474Z,17.33
2018-08-19T05:22:31.561Z,17.36
2018-08-19T05:23:31.488Z,17.39
2018-08-19T05:24:31.473Z,17.28
2018-08-19T05:25:31.489Z,17.38
2018-08-19T05:26:31.458Z,17.53
2018-08-19T05:27:31.466Z,17.43
2018-08-19T05:28:31.553Z,17.43
2018-08-19T05:29:31.441Z,17.55
2018-08-19T05:30:31.521Z,17.45
2018-08-19T05:31:31.538Z,17.35
2018-08-19T05:32:31.476Z,17.54
2018-08-19T05:33:31.514Z,17.51
2018-08-19T05:34:31.450Z,17.53
2018-08-19T05:35:31.497Z,17.74
2018-08-19T05:36:31.491Z,17.53
2018-08-19T05:37:31.519Z,17.53
2018-08-19T05:38:31.530Z,17.62
2018-08-19T05:39:31.490Z,17.71
2018-08-19T05:40:33.706Z,17.80
2018-08-19T05:41:31.483Z,17.74
2018-08-19T05:42:31.528Z,17.84
2018-08-19T05:43:31.491Z,17.81
2018-08-19T05:44:31.504Z,17.91
2018-08-19T05:45:31.505Z,17.95
2018-08-19T05:46:33.351Z,17.84
2018-08-19T05:47:31.535Z,17.84
2018-08-19T05:48:31.533Z,17.79
2018-08-19T05:50:31.501Z,17.96
2018-08-19T05:51:31.534Z,17.94
2018-08-19T05:52:33.341Z,17.98
2018-08-19T05:53:31.534Z,18.04
2018-08-19T05:54:31.541Z,18.19
2018-08-19T05:55:31.559Z,18.01
2018-08-19T05:56:31.525Z,18.05
2018-08-19T05:57:31.513Z,18.02
2018-08-19T05:58:31.556Z,18.02
2018-08-19T05:59:31.480Z,18.04
2018-08-19T06:00:31.466Z,18.14
2018-08-19T06:01:31.485Z,18.07
2018-08-19T06:02:31.463Z,18.28
2018-08-19T06:03:31.444Z,18.21
2018-08-19T06:04:31.772Z,18.29
2018-08-19T06:05:31.426Z,18.39
2018-08-19T06:06:31.476Z,18.47
2018-08-19T06:07:31.520Z,18.38
2018-08-19T06:08:31.501Z,18.39
2018-08-19T06:09:31.485Z,18.32
2018-08-19T06:10:31.525Z,18.42
2018-08-19T06:11:31.471Z,18.32
2018-08-19T06:12:31.570Z,18.44
2018-08-19T06:13:31.492Z,18.34
2018-08-19T06:14:31.508Z,18.50
2018-08-19T06:15:31.517Z,18.39
2018-08-19T06:16:31.510Z,18.42
2018-08-19T06:17:31.542Z,18.47
2018-08-19T06:18:31.515Z,18.44
2018-08-19T06:19:31.476Z,18.49
2018-08-19T06:20:31.535Z,18.49
2018-08-19T06:21:31.461Z,18.49
2018-08-19T06:22:31.522Z,18.46
2018-08-19T06:23:31.494Z,18.49
2018-08-19T06:24:31.519Z,18.50
2018-08-19T06:25:31.496Z,18.59
2018-08-19T06:26:31.535Z,18.56
2018-08-19T06:27:31.531Z,18.64
2018-08-19T06:28:31.550Z,18.68
2018-08-19T06:29:31.560Z,18.74
2018-08-19T06:30:31.546Z,18.65
2018-08-19T06:31:31.524Z,18.69
2018-08-19T06:32:31.542Z,18.74
2018-08-19T06:33:31.534Z,18.69
2018-08-19T06:34:31.631Z,18.78
2018-08-19T06:35:31.536Z,18.64
2018-08-19T06:36:31.562Z,18.64
2018-08-19T06:37:31.449Z,18.59
2018-08-19T06:38:31.457Z,18.64
2018-08-19T06:39:31.476Z,18.72
2018-08-19T06:40:31.472Z,18.75
2018-08-19T06:41:31.428Z,18.62
2018-08-19T06:42:30.913Z,18.72
2018-08-19T06:43:31.496Z,18.71
2018-08-19T06:44:31.476Z,18.83
2018-08-19T06:45:31.455Z,18.82
2018-08-19T06:46:31.509Z,18.84
2018-08-19T06:47:31.486Z,18.90
2018-08-19T06:48:30.958Z,18.91
2018-08-19T06:49:31.479Z,18.84
2018-08-19T06:50:31.501Z,18.99
2018-08-19T06:51:31.530Z,18.83
2018-08-19T06:52:31.525Z,18.96
2018-08-19T06:53:31.524Z,18.99
2018-08-19T06:54:33.297Z,19.06
2018-08-19T06:55:31.522Z,19.02
2018-08-19T06:56:31.471Z,19.16
2018-08-19T06:57:31.486Z,19.13
2018-08-19T06:58:31.496Z,19.12
2018-08-19T06:59:31.532Z,19.15
2018-08-19T07:00:31.527Z,18.99
2018-08-19T07:01:31.537Z,19.13
2018-08-19T07:02:33.731Z,19.20
2018-08-19T07:03:31.640Z,19.24
2018-08-19T07:04:31.526Z,19.23
2018-08-19T07:05:31.515Z,19.25
2018-08-19T07:06:31.528Z,19.24
2018-08-19T07:07:31.572Z,19.39
2018-08-19T07:08:31.559Z,19.31
2018-08-19T07:09:38.001Z,19.39
2018-08-19T07:10:33.551Z,19.32
2018-08-19T07:11:31.586Z,19.24
2018-08-19T07:12:31.639Z,19.43
2018-08-19T07:13:33.425Z,19.49
2018-08-19T07:14:31.527Z,19.40
2018-08-19T07:15:31.601Z,19.42
2018-08-19T07:16:31.467Z,19.50
2018-08-19T07:17:31.482Z,19.47
2018-08-19T07:18:31.539Z,19.47
2018-08-19T07:19:31.520Z,19.55
2018-08-19T07:20:31.536Z,19.58
2018-08-19T07:21:31.539Z,19.55
2018-08-19T07:22:31.519Z,19.61
2018-08-19T07:23:31.515Z,19.65
2018-08-19T07:24:31.200Z,19.68
2018-08-19T07:25:31.226Z,19.71
2018-08-19T07:26:31.221Z,19.68
2018-08-19T07:27:58.551Z,19.79
2018-08-19T07:28:31.240Z,19.85
2018-08-19T07:29:31.220Z,19.97
2018-08-19T07:30:31.217Z,19.95
2018-08-19T07:31:31.228Z,19.94
2018-08-19T07:32:31.231Z,19.97
2018-08-19T07:33:31.207Z,19.95
2018-08-19T07:34:31.246Z,20.04
2018-08-19T07:35:31.238Z,20.00
2018-08-19T07:36:31.222Z,20.02
2018-08-19T07:37:31.233Z,20.07
2018-08-19T07:38:31.306Z,20.04
2018-08-19T07:39:31.219Z,20.13
2018-08-19T07:40:33.127Z,20.16
2018-08-19T07:41:30.901Z,20.22
2018-08-19T07:42:31.257Z,20.25
2018-08-19T07:43:31.249Z,20.26
2018-08-19T07:44:31.259Z,20.23
2018-08-19T07:45:31.224Z,20.25
2018-08-19T07:46:31.276Z,20.27
2018-08-19T07:47:31.301Z,20.34
2018-08-19T07:48:31.279Z,20.33
2018-08-19T07:49:31.278Z,20.31
2018-08-19T07:50:31.392Z,20.23
2018-08-19T07:51:33.090Z,20.34
2018-08-19T07:52:31.578Z,20.31
2018-08-19T07:53:31.313Z,20.27
2018-08-19T07:54:31.173Z,20.33
2018-08-19T07:55:31.229Z,20.38
2018-08-19T07:56:31.213Z,20.33
2018-08-19T07:57:30.823Z,20.46
2018-08-19T07:58:31.220Z,20.48
2018-08-19T07:59:31.173Z,20.50
2018-08-19T08:00:30.838Z,20.42
2018-08-19T08:01:31.276Z,20.51
2018-08-19T08:02:31.231Z,20.54
2018-08-19T08:03:31.235Z,20.50
2018-08-19T08:04:31.219Z,20.48
2018-08-19T08:05:31.215Z,20.53
2018-08-19T08:06:31.194Z,20.50
2018-08-19T08:07:31.227Z,20.48
2018-08-19T08:08:31.156Z,20.44
2018-08-19T08:09:31.157Z,20.51
2018-08-19T08:10:51.536Z,20.57
2018-08-19T08:11:31.219Z,20.56
2018-08-19T08:12:31.283Z,20.66
2018-08-19T08:13:31.229Z,20.63
2018-08-19T08:14:31.241Z,20.75
2018-08-19T08:15:31.225Z,20.69
2018-08-19T08:16:31.280Z,20.82
2018-08-19T08:17:31.252Z,20.81
2018-08-19T08:18:31.199Z,20.91
2018-08-19T08:19:31.344Z,21.03
2018-08-19T08:20:31.358Z,21.00
2018-08-19T08:21:31.375Z,20.88
2018-08-19T08:22:31.191Z,20.93
2018-08-19T08:24:05.418Z,20.90
2018-08-19T08:24:31.126Z,20.98
2018-08-19T08:25:31.231Z,20.96
2018-08-19T08:26:31.196Z,20.98
2018-08-19T08:27:31.505Z,20.98
2018-08-19T08:28:31.361Z,21.16
2018-08-19T08:29:31.444Z,21.19
2018-08-19T08:30:31.416Z,21.18
2018-08-19T08:31:31.363Z,21.16
2018-08-19T08:32:31.414Z,21.26
2018-08-19T08:33:33.372Z,21.36
2018-08-19T08:36:04.524Z,21.28
2018-08-19T08:37:04.614Z,21.24
2018-08-19T08:38:58.191Z,21.26
2018-08-19T08:39:58.775Z,21.38
2018-08-19T08:40:58.515Z,21.48
2018-08-19T08:42:01.846Z,21.52
2018-08-19T08:42:58.477Z,21.70
2018-08-19T08:43:58.125Z,21.73
2018-08-19T08:44:58.476Z,21.86
2018-08-19T08:45:58.791Z,21.85
2018-08-19T08:46:58.471Z,21.86
2018-08-19T08:47:58.921Z,21.52
2018-08-19T08:48:58.072Z,21.56
2018-08-19T08:49:58.823Z,21.51
2018-08-19T08:50:58.791Z,21.58
2018-08-19T08:51:58.827Z,21.51
2018-08-19T08:52:58.809Z,21.46
2018-08-19T08:53:58.432Z,21.55
2018-08-19T08:54:58.802Z,21.64
2018-08-19T08:55:58.824Z,21.71
2018-08-19T08:56:58.808Z,21.75
2018-08-19T08:57:58.829Z,21.73
2018-08-19T09:00:32.180Z,21.86
2018-08-19T09:01:32.179Z,21.93
2018-08-19T09:03:26.476Z,22.12
2018-08-19T09:04:26.206Z,21.71
2018-08-19T09:06:20.134Z,22.14
2018-08-19T09:07:20.352Z,22.06
2018-08-19T09:09:15.669Z,22.06
2018-08-19T09:10:16.032Z,22.11
2018-08-19T09:12:10.941Z,22.17
2018-08-19T09:13:10.964Z,22.33
2018-08-19T09:15:04.364Z,22.21
2018-08-19T09:16:05.101Z,22.39
2018-08-19T09:17:58.743Z,22.41
2018-08-19T09:18:58.897Z,22.57
2018-08-19T09:20:53.274Z,22.67
2018-08-19T09:21:53.522Z,22.59
2018-08-19T09:23:48.454Z,22.46
2018-08-19T09:24:48.907Z,22.41
2018-08-19T09:26:42.835Z,22.33
2018-08-19T09:27:42.875Z,22.35
2018-08-19T09:29:36.968Z,22.42
2018-08-19T09:30:37.067Z,22.09
2018-08-19T09:32:31.609Z,22.21
2018-08-19T09:33:32.341Z,22.14
2018-08-19T09:35:25.719Z,22.01
2018-08-19T09:36:25.852Z,22.12
2018-08-19T09:38:19.569Z,22.14
2018-08-19T09:39:19.970Z,22.15
2018-08-19T09:41:14.164Z,22.21
2018-08-19T09:42:14.543Z,22.35
2018-08-19T09:44:08.093Z,22.57
2018-08-19T09:45:07.960Z,22.57
2018-08-19T09:46:08.347Z,22.60
2018-08-19T09:47:08.045Z,22.59
2018-08-19T09:48:08.882Z,22.84
2018-08-19T09:49:07.557Z,22.81
2018-08-19T09:50:08.331Z,23.01
2018-08-19T09:51:08.339Z,23.07
2018-08-19T09:52:07.869Z,22.74
2018-08-19T09:53:08.340Z,22.70
2018-08-19T09:54:08.149Z,22.82
2018-08-19T09:55:08.457Z,23.12
2018-08-19T09:56:08.335Z,23.25
2018-08-19T09:57:08.022Z,23.35
2018-08-19T09:58:08.625Z,23.25
2018-08-19T09:59:08.359Z,23.25
2018-08-19T10:00:08.358Z,23.38
2018-08-19T10:01:08.023Z,23.31
2018-08-19T10:02:08.638Z,23.23
2018-08-19T10:03:08.470Z,23.11
2018-08-19T10:04:08.400Z,23.15
2018-08-19T10:05:08.409Z,23.12
2018-08-19T10:06:08.360Z,23.32
2018-08-19T10:07:08.408Z,23.37
2018-08-19T10:08:08.392Z,23.34
2018-08-19T10:09:08.408Z,23.37
2018-08-19T10:10:08.432Z,23.22
2018-08-19T10:11:08.356Z,23.38
2018-08-19T10:12:08.645Z,23.37
2018-08-19T10:13:09.104Z,23.38
2018-08-19T10:14:08.523Z,23.18
2018-08-19T10:15:08.926Z,23.19
2018-08-19T10:16:09.086Z,23.19
2018-08-19T10:17:08.022Z,23.29
2018-08-19T10:18:08.399Z,23.16
2018-08-19T10:19:08.403Z,23.19
2018-08-19T10:20:08.363Z,23.21
2018-08-19T10:21:08.364Z,23.14
2018-08-19T10:22:08.427Z,23.29
2018-08-19T10:23:08.413Z,23.25
2018-08-19T10:24:08.652Z,23.35
2018-08-19T10:25:08.569Z,23.23
2018-08-19T10:26:08.922Z,23.29
2018-08-19T10:27:08.346Z,23.22
2018-08-19T10:28:08.348Z,23.21
2018-08-19T10:29:08.350Z,23.39
2018-08-19T10:30:09.064Z,23.37
2018-08-19T10:31:07.964Z,23.50
2018-08-19T10:32:08.346Z,23.57
2018-08-19T10:33:08.397Z,23.53
2018-08-19T10:34:08.650Z,23.23
2018-08-19T10:35:08.363Z,23.35
2018-08-19T10:36:08.576Z,23.22
2018-08-19T10:37:08.648Z,23.34
2018-08-19T10:38:08.396Z,23.32
2018-08-19T10:39:08.409Z,23.29
2018-08-19T10:40:08.487Z,23.34
2018-08-19T10:41:08.914Z,23.52
2018-08-19T10:42:08.393Z,23.35
2018-08-19T10:43:08.398Z,23.34
2018-08-19T10:44:08.374Z,23.45
2018-08-19T10:45:08.419Z,23.42
2018-08-19T10:46:08.431Z,23.72
2018-08-19T10:48:08.372Z,23.50
2018-08-19T10:49:08.326Z,23.60
2018-08-19T10:50:08.420Z,23.53
2018-08-19T10:51:08.660Z,23.60
2018-08-19T10:52:09.088Z,23.79
2018-08-19T10:53:09.916Z,23.92
2018-08-19T10:54:08.344Z,23.84
2018-08-19T10:55:08.648Z,23.99
2018-08-19T10:56:08.479Z,24.19
2018-08-19T10:57:08.418Z,24.02
2018-08-19T10:58:08.431Z,23.75
2018-08-19T10:59:08.420Z,23.78
2018-08-19T11:00:08.437Z,24.06
2018-08-19T11:01:08.363Z,23.87
2018-08-19T11:02:08.478Z,24.12
2018-08-19T11:03:08.481Z,23.71
2018-08-19T11:04:08.358Z,23.75
2018-08-19T11:05:08.352Z,23.93
2018-08-19T11:06:08.386Z,24.26
2018-08-19T11:07:08.374Z,24.31
2018-08-19T11:08:08.394Z,24.29
2018-08-19T11:09:08.400Z,24.21
2018-08-19T11:10:08.366Z,24.39
2018-08-19T11:11:08.418Z,24.31
2018-08-19T11:12:08.391Z,24.29
2018-08-19T11:13:08.371Z,24.12
2018-08-19T11:14:08.669Z,24.11
2018-08-19T11:15:08.419Z,24.45
2018-08-19T11:16:08.422Z,24.45
2018-08-19T11:17:08.442Z,24.66
2018-08-19T11:18:08.358Z,24.87
2018-08-19T11:19:08.430Z,24.90
2018-08-19T11:20:08.392Z,25.01
2018-08-19T11:21:08.265Z,24.98
2018-08-19T11:22:08.491Z,25.07
2018-08-19T11:23:08.428Z,24.90
2018-08-19T11:24:08.584Z,24.82
2018-08-19T11:25:08.441Z,25.07
2018-08-19T11:26:08.632Z,25.27
2018-08-19T11:27:09.145Z,25.08
2018-08-19T11:28:08.953Z,25.14
2018-08-19T11:29:08.662Z,25.17
2018-08-19T11:30:08.456Z,25.36
2018-08-19T11:31:08.944Z,25.41
2018-08-19T11:32:08.956Z,25.59
2018-08-19T11:33:08.188Z,25.44
2018-08-19T11:34:08.455Z,25.22
2018-08-19T11:35:08.487Z,25.04
2018-08-19T11:36:08.217Z,25.27
2018-08-19T11:37:08.434Z,25.26
2018-08-19T11:38:08.175Z,25.38
2018-08-19T11:39:08.554Z,25.23
2018-08-19T11:40:08.566Z,25.67
2018-08-19T11:41:08.553Z,25.64
2018-08-19T11:42:08.573Z,25.67
2018-08-19T11:43:08.546Z,25.74
2018-08-19T11:44:08.542Z,25.64
2018-08-19T11:45:08.504Z,25.94
2018-08-19T11:46:08.538Z,25.76
2018-08-19T11:47:08.511Z,26.09
2018-08-19T11:48:08.407Z,26.13
2018-08-19T11:49:08.403Z,25.93
2018-08-19T11:50:08.401Z,25.79
2018-08-19T11:51:08.475Z,25.63
2018-08-19T11:52:08.505Z,25.79
2018-08-19T11:53:09.953Z,25.90
2018-08-19T11:54:08.631Z,25.93
2018-08-19T11:55:08.461Z,26.19
2018-08-19T11:56:08.546Z,26.42
2018-08-19T11:57:08.532Z,26.46
2018-08-19T11:58:08.611Z,26.65
2018-08-19T11:59:08.212Z,26.46
2018-08-19T12:00:08.531Z,26.91
2018-08-19T12:01:08.618Z,26.59
2018-08-19T12:02:08.648Z,27.03
2018-08-19T12:03:08.547Z,26.88
2018-08-19T12:04:08.615Z,26.94
2018-08-19T12:05:08.530Z,26.86
2018-08-19T12:06:10.382Z,26.86
2018-08-19T12:07:08.561Z,26.76
2018-08-19T12:08:09.122Z,26.93
2018-08-19T12:09:09.092Z,26.91
2018-08-19T12:10:08.327Z,27.12
2018-08-19T12:11:08.635Z,27.63
2018-08-19T12:12:08.627Z,27.78
2018-08-19T12:13:10.565Z,27.78
2018-08-19T12:14:08.703Z,27.86
2018-08-19T12:15:08.655Z,27.84
2018-08-19T12:16:08.655Z,27.65
2018-08-19T12:17:08.766Z,27.72
2018-08-19T12:18:08.659Z,27.76
2018-08-19T12:19:08.741Z,28.23
2018-08-19T12:20:08.493Z,28.51
2018-08-19T12:21:09.163Z,28.89
2018-08-19T12:22:08.673Z,28.91
2018-08-19T12:23:09.565Z,29.25
2018-08-19T12:24:08.937Z,29.95
2018-08-19T12:25:08.905Z,29.76
2018-08-19T12:26:08.959Z,29.62
2018-08-19T12:27:08.898Z,29.86
2018-08-19T12:28:08.939Z,29.88
2018-08-19T12:29:09.170Z,30.36
2018-08-19T12:30:08.992Z,30.01
2018-08-19T12:31:08.418Z,29.48
2018-08-19T12:32:09.465Z,29.69
2018-08-19T12:33:09.170Z,29.95
2018-08-19T12:34:09.169Z,30.48
2018-08-19T12:35:09.210Z,31.53
2018-08-19T12:36:08.979Z,32.32
2018-08-19T12:37:09.030Z,32.47
2018-08-19T12:38:08.932Z,32.12
2018-08-19T12:39:08.939Z,32.22
2018-08-19T12:40:08.996Z,32.29
2018-08-19T12:41:08.930Z,32.71
2018-08-19T12:42:08.980Z,32.41
2018-08-19T12:43:08.582Z,32.39
2018-08-19T12:44:08.950Z,33.09
2018-08-19T12:45:09.013Z,34.01
2018-08-19T12:46:08.965Z,35.02
2018-08-19T12:47:08.967Z,33.70
2018-08-19T12:48:08.955Z,33.21
2018-08-19T12:49:09.075Z,33.94
2018-08-19T12:50:09.049Z,33.43
2018-08-19T12:51:09.044Z,34.01
2018-08-19T12:52:09.134Z,33.66
2018-08-19T12:53:09.059Z,33.14
2018-08-19T12:54:09.064Z,33.56
2018-08-19T12:55:09.152Z,34.42
2018-08-19T12:56:09.224Z,34.33
2018-08-19T12:57:08.800Z,34.64
2018-08-19T12:59:09.010Z,35.92
2018-08-19T13:00:09.031Z,35.54
2018-08-19T13:01:09.125Z,34.98
2018-08-19T13:02:09.651Z,35.21
2018-08-19T13:03:09.295Z,35.49
2018-08-19T13:04:08.802Z,35.27
2018-08-19T13:05:09.444Z,35.74
2018-08-19T13:06:09.456Z,34.01
2018-08-19T13:07:09.199Z,34.56
2018-08-19T13:08:09.812Z,35.29
2018-08-19T13:09:09.652Z,35.02
2018-08-19T13:10:09.709Z,35.24
2018-08-19T13:11:08.904Z,35.76
2018-08-19T13:12:09.446Z,34.87
2018-08-19T13:13:09.459Z,34.42
2018-08-19T13:14:09.455Z,34.45
2018-08-19T13:15:09.480Z,34.76
2018-08-19T13:16:09.484Z,35.55
2018-08-19T13:17:08.978Z,36.57
2018-08-19T13:18:09.485Z,37.68